Virtual United States Air Force

 METAR AND TAF INFORMATION
METAR FOR KALM
ADDS - METARS form results

(1254 UTC 20 June 2018)
Data provider http://aviationweather.gov/adds/metars/
 
METAR text: KALM 201235Z AUTO 34006KT 10SM CLR 20/00 A2996 RMK AO2
Conditions at: KALM (ALAMOGORDO WHITE, NM, US) observed 1235 UTC 20 June 2018
Temperature: 20.0°C (68°F)
Dewpoint: 0.0°C (32°F) [RH = 26%]
Pressure (altimeter): 29.96 inches Hg (1014.6 mb)
Winds: from the NNW (340 degrees) at 7 MPH (6 knots; 3.1 m/s)
Visibility: 10 or more miles (16+ km)
Ceiling: at least 12,000 feet AGL
Clouds: sky clear below 12,000 feet AGL
Weather: automated observation with no human augmentation;
there may or may not be significant weather present at this time

METAR text: KALM 201215Z AUTO 32006KT 10SM CLR 19/00 A2996 RMK AO2
Conditions at: KALM (ALAMOGORDO WHITE, NM, US) observed 1215 UTC 20 June 2018
Temperature: 19.0°C (66°F)
Dewpoint: 0.0°C (32°F) [RH = 28%]
Pressure (altimeter): 29.96 inches Hg (1014.6 mb)
Winds: from the NW (320 degrees) at 7 MPH (6 knots; 3.1 m/s)
Visibility: 10 or more miles (16+ km)
Ceiling: at least 12,000 feet AGL
Clouds: sky clear below 12,000 feet AGL
Weather: automated observation with no human augmentation;
there may or may not be significant weather present at this time

METAR text: KALM 201155Z AUTO 34004KT 10SM CLR 20/00 A2995 RMK AO2
Conditions at: KALM (ALAMOGORDO WHITE, NM, US) observed 1155 UTC 20 June 2018
Temperature: 20.0°C (68°F)
Dewpoint: 0.0°C (32°F) [RH = 26%]
Pressure (altimeter): 29.95 inches Hg (1014.3 mb)
Winds: from the NNW (340 degrees) at 5 MPH (4 knots; 2.1 m/s)
Visibility: 10 or more miles (16+ km)
Ceiling: at least 12,000 feet AGL
Clouds: sky clear below 12,000 feet AGL
Weather: automated observation with no human augmentation;
there may or may not be significant weather present at this time

 AIRPORT MAP

 RUNWAY INFORMATION
Runway 03 Runway length 7006 ft Runway width 150 ft
Runway elevation 4144 ft Runway displaced threshold 0 ft Runway heading 46
Runway 21 Runway length 7006 ft Runway width 150 ft
Runway elevation 4200 ft Runway displaced threshold 0 ft Runway heading 226
Runway 16 Runway length 3512 ft Runway width 200 ft
Runway elevation 4200 ft Runway displaced threshold 0 ft Runway heading 173
Runway 34 Runway length 3512 ft Runway width 200 ft
Runway elevation 4200 ft Runway displaced threshold 0 ft Runway heading 353

 AIRPORT FREQUENCIES
Type APP Name HOLLOMAN A Frequency 120.6 MHZ
Type AWOS Name AWOS 3 Frequency 127.825 MHZ
Type DEP Name HOLLOMAN D Frequency 128.1 MHZ
Type RDO Name ALBUQUERQU Frequency 122.15 MHZ
Type UNIC Name CTAF/UNICO Frequency 122.8 MHZ

 AIRPORT NEAR NAVIGATION AIDS


Neither the Department of the Air Force, nor any other component of the Department of Defense or Federal Government has approved, endorsed, or authorized this promotion, activity, or organization. Virtual United States Air Force organization is in no way affiliated with the Department of Defense, Department of the Air Force, or any other federal or government entity. Virtual United States Air Force is a group of flight simulation enthusiasts with the common interest of promoting enjoyment and cameraderie through the simulation of military operations and procedures utilizing several flight simulation platforms.

Copyright © vUSAF, LLC // 2018 All Rights Reserved